Tehachapi, CA (93581)

5:29 PM PST on February 12, 2016 (GMT -0800)
Tehachapi Municipal | | Change Station
CLOSE
Current Station
Airport
Location: Tehachapi,
Elevation: 3999 ft
Nearby Weather Stations

Elev 3999 ft 35.13 °N, 118.44 °W | Updated 14 minutes ago

Haze
Haze
55 °F
Feels Like 55 °F
N
6
Wind Variable Wind from NW

Today
High -- | Low -- °F
--% Chance of Precip.
Yesterday
High -- | Low -- °F
Precip. -- in
Pressure 30.22 in
Visibility 5.0 miles
Clouds Clear
Dew Point 41 °F
Humidity 58%
Rainfall 0.00 in
Snow Depth Not available.
6:43 AM 5:33 PM
Waxing Crescent, 25% visible
METAR KTSP 130115Z AUTO 32005KT 5SM HZ CLR 13/05 A3022 RMK AO2
Pressure 30.22 in
Visibility 5.0 miles
Clouds Clear
Dew Point 41 °F
Humidity 58%
Rainfall 0.00 in
Snow Depth Not available.
6:43 AM 5:33 PM
Waxing Crescent, 25% visible
METAR KTSP 130115Z AUTO 32005KT 5SM HZ CLR 13/05 A3022 RMK AO2

10-Day Weather Forecast

Almanac

Astronomy

Feb. 12, 2016 Rise Set
Actual Time
Civil Twilight
Nautical Twilight
Astronomical Twilight
Moon
Length of Visible Light
Length of Day
Tomorrow will be .
, % of the Moon is Illuminated

Today's Extremes

State Highs State Lows

Community

WunderPhotos

Upload Photos

1,892,455 photos uploaded!

WunderBlog® & News

Nearby

Air Quality

  Air Quality AQ Index Pollutant
Not available.

Snow Depth

Station Depth Elevation

Earthquake Activity

City Distance Mag. Time & Date
Minimum magnitude displayed is 2.5.

Coastal Water Temperatures

Place Temperature

Stations

Nearby Weather Stations

Station Location Temp. Windchill Dew Point Humidity Wind Precip. Elev Updated Type
                   

Watches & Warnings

There are currently no watches in effect.